Latest Coastal Weather Observations for Taree Airport

IDN60701

Issued at 4:42 pm EDT Thursday 25 February 2021 (issued every 10 minutes, with the page automatically refreshed every 10 minutes)

About coastal observations | Map of coastal stations | Coastal observations for NSW | Marine services | Other Formats
Station Details ID: 060141 Name: TAREE AIRPORT AWS Lat: -31.89 Lon: 152.51 Height: 8.0 m
Data from the previous 72 hours. | See also: Recent months at Taree Airport
Date/Time
EDT
Wind Sea
Height
m
Swell Vis
km
Cloud Weather Temp
°C
Press
MSL
hPa
Rain since
9am
mm
Dir  Spd
kts
Gust
kts
Height
m
Period
s
Dir
25/04:30pm NE 9 12 - - - - 10 Partly cloudy - 26.6 1008.7 0.2
25/04:00pm NE 11 16 - - - - 10 - - 27.5 1008.7 0.2
25/03:30pm ENE 10 14 - - - - 10 - - 27.9 1008.8 0.2
25/03:00pm NE 9 13 - - - - 10 Mostly cloudy Showers 28.3 1009.4 0.2
25/02:30pm ENE 10 14 - - - - 10 - - 28.1 1009.7 0.2
25/02:00pm NE 8 10 - - - - 10 - - 27.5 1010.1 0.2
25/01:30pm NE 8 11 - - - - 10 - - 27.2 1010.3 0.2
25/01:00pm NE 9 14 - - - - 10 - - 27.7 1010.2 0.2
25/12:30pm NE 7 11 - - - - 10 - - 27.2 1010.6 0.2
25/12:00pm NE 7 10 - - - - 10 Cloudy - 26.5 1011.0 0.2
25/11:30am ENE 7 9 - - - - 10 - - 25.9 1011.4 0.2
25/11:00am ENE 5 8 - - - - 10 - - 25.9 1011.8 0.2
25/10:30am SSW 3 6 - - - - 10 - - 24.7 1012.0 0.2
25/10:00am S 6 8 - - - - 10 - - 23.8 1011.8 0.2
25/09:30am SSW 5 6 - - - - 10 - - 23.3 1011.8 0.0
25/09:00am SSW 5 7 - - - - 10 Partly cloudy - 22.6 1011.7 0.0
25/08:30am WSW 5 7 - - - - 10 - - 21.9 1011.7 0.0
25/08:00am SW 5 6 - - - - 10 - - 20.6 1011.6 0.0
25/07:30am CALM 0 0 - - - - 10 - - 20.2 1011.4 0.0
25/07:00am NNE 2 5 - - - - 10 - - 19.3 1011.5 0.0
25/06:30am NE 6 7 - - - - 10 - - 19.0 1011.4 0.0
25/06:00am NE 4 6 - - - - 10 - - 18.9 1011.5 0.0
25/05:30am ENE 7 9 - - - - 10 - - 19.9 1011.5 0.0
25/05:00am NE 9 14 - - - - 10 Partly cloudy - 20.1 1012.0 0.0
25/04:30am NE 8 13 - - - - 10 Cloudy - 20.2 1012.3 0.0
25/04:00am NE 10 13 - - - - 10 Partly cloudy - 20.3 1012.6 0.0
25/03:30am NNE 7 13 - - - - 10 - - 20.5 1012.8 0.0
25/03:00am NE 8 11 - - - - 10 Cloudy - 20.0 1012.9 0.0
25/02:30am NE 6 8 - - - - 10 Partly cloudy - 19.6 1013.1 0.0
25/02:00am NNE 6 10 - - - - 10 Cloudy - 20.6 1013.4 0.0
25/01:30am NNE 9 16 - - - - 10 Partly cloudy - 20.7 1014.0 0.0
25/01:00am NNE 7 10 - - - - 10 Partly cloudy - 20.6 1014.6 0.0
25/12:30am ENE 7 9 - - - - 10 Partly cloudy - 20.0 1014.4 0.0
25/12:00am NE 8 14 - - - - 10 Partly cloudy Rain 20.4 1014.2 0.0
 
Date/Time
EDT
Wind Sea
Height
m
Swell Vis
km
Cloud Weather Temp
°C
Press
MSL
hPa
Rain since
9am
mm
Dir  Spd
kts
Gust
kts
Height
m
Period
s
Dir
24/11:30pm ENE 8 11 - - - - 10 Partly cloudy - 20.3 1014.6 0.0
24/11:00pm NE 11 16 - - - - 10 Cloudy - 20.6 1014.8 0.0
24/10:30pm NE 6 8 - - - - 10 Cloudy - 20.7 1015.9 0.0
24/10:00pm NE 8 11 - - - - 10 Partly cloudy - 21.0 1015.2 0.0
24/09:30pm NNE 1 4 - - - - 10 Partly cloudy - 20.7 1015.3 0.0
24/09:00pm NE 4 6 - - - - 10 Cloudy - 20.6 1014.9 0.0
24/08:30pm NNE 4 6 - - - - 10 Partly cloudy - 21.0 1015.4 0.0
24/08:00pm CALM 0 3 - - - - 10 Partly cloudy - 20.5 1015.2 0.0
24/07:30pm CALM 0 1 - - - - 10 Cloudy - 20.6 1014.9 0.0
24/07:00pm SE 2 4 - - - - 10 Partly cloudy - 20.6 1015.1 0.0
24/06:30pm ENE 5 6 - - - - 10 Partly cloudy - 20.8 1015.0 0.0
24/06:00pm E 7 10 - - - - 10 Cloudy Showers 21.2 1014.6 0.0
24/05:30pm NE 8 10 - - - - 10 Partly cloudy - 21.7 1014.7 0.0
24/05:00pm ESE 6 7 - - - - 10 Partly cloudy - 21.4 1014.5 0.0
24/04:30pm ESE 6 7 - - - - 10 Partly cloudy - 21.5 1014.6 0.0
24/04:00pm SE 6 9 - - - - 10 Partly cloudy - 21.9 1015.2 0.0
24/03:30pm ESE 7 10 - - - - 10 Partly cloudy - 21.9 1015.2 0.0
24/03:00pm E 8 10 - - - - 10 Cloudy - 22.5 1015.2 0.0
24/02:30pm E 7 9 - - - - 10 Partly cloudy - 22.5 1015.6 0.0
24/02:00pm ESE 7 8 - - - - 10 Partly cloudy - 22.1 1016.0 0.0
24/01:30pm ESE 5 7 - - - - 10 Cloudy - 21.1 1016.5 0.0
24/01:00pm SW 4 5 - - - - 10 Partly cloudy - 21.2 1016.7 0.0
24/12:30pm SSW 2 4 - - - - 10 Partly cloudy - 21.5 1016.9 0.0
24/12:05pm S 4 6 - - - - 10 Partly cloudy - 21.4 1017.1 0.0
24/12:00pm S 5 6 - - - - 10 Cloudy - 21.2 1017.1 0.0
24/11:41am SW 5 7 - - - - 10 Partly cloudy - 21.3 1017.3 0.0
24/11:30am WSW 5 7 - - - - 10 Partly cloudy - 21.0 1017.4 0.0
24/11:03am WSW 5 7 - - - - 10 Partly cloudy - 20.5 1017.5 0.0
24/11:00am WSW 5 6 - - - - 10 Partly cloudy - 20.5 1017.5 0.0
24/10:41am NNW 2 4 - - - - 10 Partly cloudy - 19.9 1017.7 0.0
24/10:30am NNW 3 5 - - - - 8 Partly cloudy - 19.6 1017.8 0.0
24/10:00am WNW 4 5 - - - - 10 Partly cloudy - 19.5 1017.5 0.0
24/09:46am NW 6 8 - - - - 10 Partly cloudy - 19.5 1017.4 0.0
24/09:30am NW 5 7 - - - - 10 Partly cloudy - 19.1 1017.3 0.0
24/09:27am NW 5 7 - - - - 10 Partly cloudy - 18.9 1017.3 0.0
24/09:00am SW 6 7 - - - - 10 Cloudy Showers 18.7 1016.9 15.6
24/08:30am W 6 7 - - - - 10 Partly cloudy - 18.5 1016.9 15.6
24/08:07am W 6 8 - - - - 10 Partly cloudy - 18.3 1016.7 15.6
24/08:00am W 5 7 - - - - 7 Partly cloudy - 18.3 1016.6 15.6
24/07:47am NNE 4 5 - - - - 5 Partly cloudy - 18.3 1016.5 15.4
24/07:30am CALM 0 0 - - - - 10 Partly cloudy - 18.3 1016.4 15.4
24/07:07am WNW 4 5 - - - - 10 Partly cloudy - 18.1 1016.0 15.4
24/07:00am WNW 5 6 - - - - 10 Partly cloudy - 18.1 1015.9 15.4
24/06:48am NW 5 6 - - - - 2 Partly cloudy - 18.0 1015.8 15.4
24/06:30am WNW 3 5 - - - - 10 Partly cloudy - 18.0 1015.4 15.4
24/06:00am W 5 7 - - - - 10 Cloudy Showers 18.0 1015.0 15.4
24/05:30am W 5 6 - - - - 10 Partly cloudy - 18.1 1015.0 15.4
24/05:00am WNW 4 5 - - - - 10 Partly cloudy - 18.2 1014.9 15.4
24/04:30am W 5 6 - - - - 10 Partly cloudy - 18.3 1014.8 15.4
24/04:00am W 3 4 - - - - 10 Cloudy - 18.3 1014.8 15.4
24/03:30am W 3 4 - - - - 10 Partly cloudy - 18.4 1014.7 15.4
24/03:00am W 5 6 - - - - 10 Cloudy - 18.3 1014.9 15.4
24/02:30am WNW 5 6 - - - - 10 Partly cloudy - 18.3 1015.3 15.4
24/02:00am WNW 4 6 - - - - 10 Partly cloudy - 18.3 1015.6 15.4
24/01:30am WNW 5 6 - - - - 10 Partly cloudy - 18.4 1015.6 15.4
24/01:00am WNW 5 8 - - - - 10 Cloudy - 18.3 1016.0 15.4
24/12:30am NNW 5 6 - - - - 10 Partly cloudy - 18.4 1016.2 15.4
24/12:00am SW 4 6 - - - - 10 Mostly cloudy - 18.5 1016.3 15.4
 
Date/Time
EDT
Wind Sea
Height
m
Swell Vis
km
Cloud Weather Temp
°C
Press
MSL
hPa
Rain since
9am
mm
Dir  Spd
kts
Gust
kts
Height
m
Period
s
Dir
23/11:30pm WSW 5 6 - - - - 10 Partly cloudy - 18.6 1016.1 15.4
23/11:00pm SSW 6 7 - - - - 10 Partly cloudy - 18.5 1016.2 15.4
23/10:30pm SW 6 7 - - - - 10 Partly cloudy - 18.5 1016.3 15.4
23/10:19pm SW 6 7 - - - - 10 Partly cloudy - 18.5 1016.2 15.4
23/10:00pm SSW 6 7 - - - - 10 Partly cloudy - 18.6 1016.1 15.2
23/09:52pm SSW 6 7 - - - - 10 Partly cloudy - 18.7 1016.1 15.2
23/09:30pm SE 5 8 - - - - 7 Partly cloudy - 18.6 1016.0 15.2
23/09:27pm SE 6 8 - - - - 7 Partly cloudy - 18.6 1015.9 15.2
23/09:13pm SSE 7 10 - - - - 5 Partly cloudy - 18.7 1015.8 15.0
23/09:00pm SSE 7 9 - - - - 9 Cloudy Showers 18.8 1015.7 14.8
23/08:30pm S 5 8 - - - - 10 Partly cloudy - 18.8 1015.1 14.6
23/08:00pm SE 7 11 - - - - 10 Partly cloudy - 18.8 1014.5 14.2
23/07:49pm SSE 6 9 - - - - 8 Partly cloudy - 18.9 1014.3 14.2
23/07:37pm SSE 5 8 - - - - 5 Partly cloudy - 18.9 1014.4 14.0
23/07:30pm SE 7 10 - - - - 5 Partly cloudy - 18.9 1014.2 13.6
23/07:29pm SE 7 10 - - - - 5 Partly cloudy - 18.9 1014.2 13.6
23/07:25pm SE 7 10 - - - - 6 Partly cloudy - 18.9 1014.0 13.2
23/07:00pm SSE 7 10 - - - - 5 Partly cloudy - 18.9 1013.8 12.0
23/06:44pm SE 7 12 - - - - 5 Partly cloudy - 19.1 1013.4 11.0
23/06:34pm SSE 2 6 - - - - 5 Partly cloudy - 19.1 1013.4 9.8
23/06:30pm SE 4 8 - - - - 8 Partly cloudy - 19.1 1013.4 9.6
23/06:25pm SE 6 8 - - - - 10 Partly cloudy - 19.2 1013.2 9.4
23/06:04pm SSE 5 7 - - - - 5 Partly cloudy - 19.5 1012.9 8.8
23/06:00pm SSE 6 9 - - - - 6 Cloudy Rain 19.4 1012.8 8.6
23/05:45pm S 7 9 - - - - 5 Partly cloudy - 19.5 1012.6 8.4
23/05:35pm S 8 13 - - - - 5 Partly cloudy - 19.6 1012.6 8.0
23/05:33pm S 7 10 - - - - 5 Partly cloudy - 19.7 1012.5 7.8
23/05:30pm SSE 7 10 - - - - 8 Partly cloudy - 19.7 1012.4 7.6
23/05:18pm SSE 8 12 - - - - 10 Partly cloudy - 19.7 1012.1 7.0
23/05:17pm SSE 8 12 - - - - 10 Partly cloudy - 19.7 1012.1 7.0
23/05:00pm SSE 5 7 - - - - 4 Partly cloudy - 19.6 1012.1 7.0
23/04:38pm SSE 8 11 - - - - 5 Partly cloudy - 20.0 1011.9 6.6
23/04:31pm SSE 6 8 - - - - 6 Partly cloudy - 20.2 1011.9 6.2
23/04:30pm SSE 5 8 - - - - 6 Partly cloudy - 20.1 1011.9 6.2
23/04:00pm SSE 9 14 - - - - 9 Partly cloudy - 19.6 1011.9 5.8
23/03:53pm SSE 9 14 - - - - 8 Partly cloudy - 19.7 1012.0 5.8
23/03:41pm SSE 8 14 - - - - 10 Partly cloudy - 20.0 1011.8 5.6
23/03:38pm S 8 14 - - - - 10 Partly cloudy - 20.2 1011.9 5.6
23/03:36pm SSE 8 11 - - - - 10 Partly cloudy - 19.9 1012.0 5.6
23/03:30pm SSE 9 15 - - - - 10 Partly cloudy - 20.0 1012.0 5.6
23/03:23pm SSE 9 14 - - - - 5 Partly cloudy - 20.0 1012.1 5.6
23/03:19pm SSE 7 13 - - - - 5 Partly cloudy - 20.1 1012.1 5.6
23/03:08pm SE 6 10 - - - - 10 Partly cloudy - 20.0 1012.0 5.2
23/03:05pm SE 7 10 - - - - 8 Partly cloudy - 20.1 1012.0 5.2
23/03:00pm SSE 8 10 - - - - 6 Cloudy Showers 19.9 1012.1 5.2
23/02:46pm SSE 10 14 - - - - 5 Partly cloudy - 20.1 1012.2 5.0
23/02:40pm SE 10 15 - - - - 7 Partly cloudy - 20.5 1012.1 4.8
23/02:30pm SSE 6 8 - - - - 10 Partly cloudy - 21.1 1012.2 4.8
23/02:00pm SSE 11 16 - - - - 10 Partly cloudy - 20.5 1012.3 4.8
23/01:30pm SSW 6 8 - - - - 10 Partly cloudy - 22.2 1012.2 4.6
23/01:03pm S 8 13 - - - - 8 Partly cloudy - 20.3 1012.5 4.6
23/01:00pm S 9 13 - - - - 7 Partly cloudy - 19.8 1012.5 4.6
23/12:32pm WSW 5 7 - - - - 10 Partly cloudy - 21.8 1012.5 3.6
23/12:30pm SW 5 7 - - - - 10 Partly cloudy - 21.8 1012.5 3.6
23/12:00pm S 6 8 - - - - 10 Cloudy Rain 21.1 1012.5 3.6
23/11:33am S 7 10 - - - - 10 Partly cloudy - 20.6 1012.6 3.6
23/11:30am S 7 9 - - - - 10 Partly cloudy - 20.5 1012.6 3.6
23/11:07am SSE 8 10 - - - - 5 Partly cloudy - 20.4 1012.5 3.2
23/11:06am S 8 10 - - - - 6 Partly cloudy - 20.5 1012.5 2.8
23/11:00am S 7 10 - - - - 10 Partly cloudy - 20.5 1012.4 2.6
23/10:44am SSE 8 12 - - - - 5 Partly cloudy - 20.6 1012.4 2.6
23/10:30am SE 8 10 - - - - 8 Partly cloudy - 20.5 1012.1 2.4
23/10:28am SE 8 10 - - - - 8 Partly cloudy - 20.5 1012.1 2.4
23/10:18am SSE 9 11 - - - - 10 Partly cloudy - 20.6 1011.9 2.4
23/10:09am SSE 8 10 - - - - 7 Partly cloudy - 20.2 1011.8 2.4
23/10:00am SSE 10 15 - - - - 6 Partly cloudy - 20.1 1011.7 2.4
23/09:30am SSE 7 9 - - - - 5 Partly cloudy - 20.5 1011.2 0.6
23/09:00am S 8 13 - - - - 4 Cloudy Rain 20.7 1010.9 13.6
23/08:37am SW 6 8 - - - - 4 Partly cloudy - 20.5 1010.7 13.2
23/08:30am SW 6 8 - - - - 4 Partly cloudy - 20.5 1010.6 13.0
23/08:21am WSW 6 8 - - - - 5 Partly cloudy - 20.4 1010.5 12.8
23/08:03am WSW 5 6 - - - - 9 Partly cloudy - 20.5 1010.4 12.4
23/08:00am WSW 5 6 - - - - 10 Partly cloudy - 20.5 1010.4 12.4
23/07:49am W 5 6 - - - - 10 Partly cloudy - 20.5 1010.2 12.2
23/07:30am WSW 6 8 - - - - 5 Partly cloudy - 20.6 1009.9 12.2
23/07:24am WSW 6 9 - - - - 4 Partly cloudy - 20.6 1009.8 12.2
23/07:02am SW 5 7 - - - - 5 Partly cloudy - 20.7 1009.4 11.6
23/07:00am SW 5 7 - - - - 6 Partly cloudy - 20.6 1009.4 11.6
23/06:53am WSW 5 7 - - - - 7 Partly cloudy - 20.7 1009.3 11.6
23/06:30am WSW 6 7 - - - - 10 Partly cloudy - 20.8 1008.9 11.4
23/06:13am SW 5 7 - - - - 10 Partly cloudy - 20.9 1008.7 11.4
23/06:00am SW 5 6 - - - - 10 Cloudy Drizzle 20.9 1008.6 11.4
23/05:47am WSW 5 5 - - - - 10 Partly cloudy - 20.9 1008.4 11.2
23/05:35am SW 5 7 - - - - 3 Partly cloudy - 21.0 1008.3 11.2
23/05:30am SW 5 7 - - - - 3 Partly cloudy - 20.9 1008.2 11.2
23/05:23am SW 5 7 - - - - 5 Partly cloudy - 21.0 1008.1 11.2
23/05:13am SW 6 8 - - - - 5 Partly cloudy - 21.0 1008.0 11.2
23/05:03am SW 5 7 - - - - 5 Partly cloudy - 21.0 1007.9 11.0
23/05:02am WSW 5 7 - - - - 6 Partly cloudy - 21.0 1007.9 11.0
23/05:00am WSW 5 6 - - - - 6 Partly cloudy - 21.0 1007.9 10.8
23/04:38am W 3 4 - - - - 10 Partly cloudy - 21.0 1007.7 10.4
23/04:30am W 3 4 - - - - 6 Partly cloudy - 20.9 1007.7 10.4
23/04:00am SW 7 10 - - - - 2 Partly cloudy - 20.9 1007.6 7.8
23/03:41am SW 10 14 - - - - 5 Partly cloudy - 21.1 1007.6 1.0
23/03:30am SW 7 11 - - - - 10 Partly cloudy - 21.5 1007.4 0.2
23/03:00am WSW 5 7 - - - - 10 Cloudy - 22.0 1007.0 0.2
23/02:30am W 4 6 - - - - 10 Partly cloudy - 22.1 1007.1 0.2
23/02:00am WSW 4 6 - - - - 10 Partly cloudy - 22.2 1007.0 0.2
23/01:30am WNW 6 7 - - - - 10 Partly cloudy - 22.5 1007.1 0.2
23/01:00am WNW 6 7 - - - - 10 Partly cloudy - 22.6 1007.5 0.2
23/12:30am WNW 5 6 - - - - 10 Partly cloudy - 22.7 1007.4 0.2
23/12:00am NW 5 6 - - - - 10 Cloudy - 22.6 1007.5 0.2
 
Date/Time
EDT
Wind Sea
Height
m
Swell Vis
km
Cloud Weather Temp
°C
Press
MSL
hPa
Rain since
9am
mm
Dir  Spd
kts
Gust
kts
Height
m
Period
s
Dir
22/11:30pm W 4 4 - - - - 10 Partly cloudy - 22.8 1007.6 0.2
22/11:00pm WNW 6 7 - - - - 10 Cloudy - 23.2 1007.7 0.2
22/10:30pm WSW 5 7 - - - - 10 Partly cloudy - 23.4 1007.7 0.2
22/10:00pm WSW 6 8 - - - - 10 Partly cloudy - 23.6 1007.6 0.2
22/09:30pm WSW 5 7 - - - - 10 Partly cloudy - 23.3 1007.3 0.2
22/09:00pm SW 6 10 - - - - 10 Cloudy - 23.6 1006.3 0.2
22/08:30pm WSW 6 9 - - - - 10 Partly cloudy - 23.7 1006.4 0.2
22/08:00pm SSE 3 6 - - - - 10 - - 23.8 1005.3 0.2
22/07:30pm S 4 6 - - - - 10 - - 24.4 1004.9 0.2
22/07:00pm SSE 9 13 - - - - 10 - - 24.6 1004.9 0.2
22/06:30pm SSE 13 18 - - - - 10 - - 25.5 1004.3 0.2
22/06:00pm SSE 12 17 - - - - 10 - - 26.4 1003.9 0.2
22/05:30pm SE 12 16 - - - - 10 - - 27.4 1003.6 0.2
22/05:00pm SSE 11 14 - - - - 10 - - 28.6 1003.2 0.2

Other formats

Comma delimited format used in spreadsheet applications
http://www.bom.gov.au/fwo/IDN60701/IDN60701.95784.axf

JavaScript Object Notation format (JSON) in row-major order
http://www.bom.gov.au/fwo/IDN60701/IDN60701.95784.json

Data quality

Most of these data are generated automatically and are frequently updated. Quality checks on data are not normally performed. It is possible for incorrect values to appear. Refer to information at About Latest Weather Observations and please check the disclaimer before using these data.